Time;durP1;ratioP1;P1;durP2;ratioP2;P2;SDS_P1;SDS_P2;PMS_P1;PMS_P2;Temp;Humidity;BMP_temperature;BMP_pressure;BME280_temperature;BME280_humidity;BME280_pressure;Samples;Min_cycle;Max_cycle;Signal;HPM_P1;HPM_P2
2023/05/31 00:01:05;;;;;;;9.90;4.10;;;;;;;-148.23;100.00;56998.88;5055159;28;20088;-60
2023/05/31 00:03:32;;;;;;;5.88;4.28;;;;;;;-148.23;100.00;56998.88;5054959;28;20087;-60
2023/05/31 00:05:59;;;;;;;5.38;4.10;;;;;;;-148.23;100.00;56998.88;5054894;28;20049;-60
2023/05/31 00:08:29;;;;;;;10.18;4.28;;;;;;;-148.23;100.00;56998.88;5054941;28;20045;-60
2023/05/31 00:10:57;;;;;;;8.48;4.55;;;;;;;-148.23;100.00;56998.88;5054940;28;20051;-60
2023/05/31 00:13:24;;;;;;;7.32;4.75;;;;;;;-148.23;100.00;56998.88;5054911;28;20135;-60
2023/05/31 00:15:52;;;;;;;9.65;4.93;;;;;;;-148.23;100.00;56998.88;5053686;28;20049;-61
2023/05/31 00:18:19;;;;;;;16.00;5.22;;;;;;;-148.23;100.00;56998.88;5054559;28;20045;-60
2023/05/31 00:20:47;;;;;;;6.03;4.53;;;;;;;-148.23;100.00;56998.88;5054612;28;20098;-60
2023/05/31 00:23:14;;;;;;;7.28;4.82;;;;;;;-148.23;100.00;56998.88;5054459;28;20049;-60
2023/05/31 00:25:41;;;;;;;9.40;4.13;;;;;;;-148.23;100.00;56998.88;5054872;28;20067;-60
2023/05/31 00:28:08;;;;;;;7.63;5.18;;;;;;;-148.23;100.00;56998.88;5054421;28;20053;-60
2023/05/31 00:30:35;;;;;;;11.23;5.15;;;;;;;-148.23;100.00;56998.88;5054348;28;20090;-60
2023/05/31 00:33:04;;;;;;;6.35;4.38;;;;;;;-148.23;100.00;56998.88;5054311;28;20112;-60
2023/05/31 00:35:31;;;;;;;10.85;4.82;;;;;;;-148.23;100.00;56998.88;5054304;28;20083;-60
2023/05/31 00:37:58;;;;;;;6.07;4.80;;;;;;;-148.23;100.00;56998.88;5054150;28;20136;-60
2023/05/31 00:40:27;;;;;;;8.00;4.43;;;;;;;-148.23;100.00;56998.88;5054177;28;20521;-60
2023/05/31 00:42:55;;;;;;;9.30;4.50;;;;;;;-148.23;100.00;56998.88;5054118;28;20076;-60
2023/05/31 00:45:22;;;;;;;7.75;4.60;;;;;;;-148.23;100.00;56998.88;5054120;28;20102;-60
2023/05/31 00:47:49;;;;;;;8.70;4.55;;;;;;;-148.23;100.00;56998.88;5054064;28;20053;-60
2023/05/31 00:50:18;;;;;;;7.25;4.72;;;;;;;-148.23;100.00;56998.88;5054009;28;20469;-60
2023/05/31 00:52:47;;;;;;;10.70;4.78;;;;;;;-148.23;100.00;56998.88;5053949;28;20501;-60
2023/05/31 00:55:15;;;;;;;7.28;5.07;;;;;;;-148.23;100.00;56998.88;5053854;28;20568;-60
2023/05/31 00:57:43;;;;;;;8.38;5.50;;;;;;;-148.23;100.00;56998.88;5054059;28;20049;-60
2023/05/31 01:00:11;;;;;;;14.13;4.95;;;;;;;-148.23;100.00;56998.88;5053894;28;20052;-60
2023/05/31 01:02:41;;;;;;;12.63;5.32;;;;;;;-148.23;100.00;56998.88;5053646;28;20099;-60
2023/05/31 01:05:08;;;;;;;14.35;5.68;;;;;;;-148.23;100.00;56998.88;5053828;28;20183;-60
2023/05/31 01:07:38;;;;;;;14.43;5.18;;;;;;;-148.23;100.00;56998.88;5053824;28;20045;-60
2023/05/31 01:10:07;;;;;;;4.90;4.40;;;;;;;-148.23;100.00;56998.88;5053514;28;20063;-60
2023/05/31 01:12:44;;;;;;;13.10;6.03;;;;;;;-148.23;100.00;56998.88;5053271;28;20510;-60
2023/05/31 01:15:17;;;;;;;15.48;4.53;;;;;;;-148.23;100.00;56998.88;5053463;28;20048;-60
2023/05/31 01:18:00;;;;;;;9.82;4.80;;;;;;;-148.23;100.00;56998.88;5053584;28;20514;-60
2023/05/31 01:20:32;;;;;;;9.68;4.60;;;;;;;-148.23;100.00;56998.88;5053465;28;20048;-60
2023/05/31 01:23:12;;;;;;;12.40;4.75;;;;;;;-148.23;100.00;56998.88;5053505;28;20106;-60
2023/05/31 01:26:04;;;;;;;9.38;5.28;;;;;;;-148.23;100.00;56998.88;5053113;28;20128;-60
2023/05/31 01:28:38;;;;;;;14.23;5.13;;;;;;;-148.23;100.00;56998.88;5053455;28;20049;-60
2023/05/31 01:31:10;;;;;;;13.43;4.63;;;;;;;-148.23;100.00;56998.88;5053170;28;20053;-60
2023/05/31 01:33:38;;;;;;;14.80;4.85;;;;;;;-148.23;100.00;56998.88;5053362;28;20057;-60
2023/05/31 01:36:05;;;;;;;9.93;4.40;;;;;;;-148.23;100.00;56998.88;5053358;28;20053;-60
2023/05/31 01:38:32;;;;;;;5.88;4.60;;;;;;;-148.23;100.00;56998.88;5053343;28;20044;-60
2023/05/31 01:41:00;;;;;;;15.77;5.53;;;;;;;-148.23;100.00;56998.88;5053240;28;20045;-60
2023/05/31 01:43:28;;;;;;;8.00;4.45;;;;;;;-148.23;100.00;56998.88;5053104;28;20498;-60
2023/05/31 01:45:58;;;;;;;16.77;4.75;;;;;;;-148.23;100.00;56998.88;5053148;28;20055;-60
2023/05/31 01:48:27;;;;;;;8.05;5.03;;;;;;;-148.23;100.00;56998.88;5053354;28;20139;-60
2023/05/31 01:50:55;;;;;;;10.52;5.20;;;;;;;-148.23;100.00;56998.88;5053116;28;20458;-60
2023/05/31 01:53:22;;;;;;;9.38;6.40;;;;;;;-148.23;100.00;56998.88;5052982;28;20041;-60
2023/05/31 01:55:49;;;;;;;10.70;7.20;;;;;;;-148.23;100.00;56998.88;5052963;28;20132;-60
2023/05/31 01:58:18;;;;;;;14.90;6.55;;;;;;;-148.23;100.00;56998.88;5052937;28;20501;-60
2023/05/31 02:00:45;;;;;;;10.38;5.90;;;;;;;-148.23;100.00;56998.88;5053197;28;20053;-60
2023/05/31 02:03:14;;;;;;;8.25;5.05;;;;;;;-148.23;100.00;56998.88;5052898;28;20080;-60
2023/05/31 02:05:55;;;;;;;15.65;5.22;;;;;;;-148.23;100.00;56998.88;5053001;28;20084;-60
2023/05/31 02:08:23;;;;;;;7.82;4.40;;;;;;;-148.23;100.00;56998.88;5052888;28;20056;-60
2023/05/31 02:10:50;;;;;;;9.23;5.20;;;;;;;-148.23;100.00;56998.88;5052791;28;20073;-60
2023/05/31 02:13:19;;;;;;;10.75;5.88;;;;;;;-148.23;100.00;56998.88;5052931;28;20132;-60
2023/05/31 02:15:46;;;;;;;12.88;4.75;;;;;;;-148.23;100.00;56998.88;5052861;28;20052;-60
2023/05/31 02:18:16;;;;;;;9.45;5.30;;;;;;;-148.23;100.00;56998.88;5052825;28;20483;-60
2023/05/31 02:20:44;;;;;;;13.43;4.70;;;;;;;-148.23;100.00;56998.88;5053011;28;20049;-60
2023/05/31 02:23:11;;;;;;;7.90;5.20;;;;;;;-148.23;100.00;56998.88;5052732;28;20087;-60
2023/05/31 02:25:38;;;;;;;9.30;4.93;;;;;;;-148.23;100.00;56998.88;5052782;28;20143;-60
2023/05/31 02:28:05;;;;;;;15.68;5.18;;;;;;;-148.23;100.00;56998.88;5052842;28;20111;-60
2023/05/31 02:30:32;;;;;;;8.45;4.40;;;;;;;-148.23;100.00;56998.88;5052559;28;20124;-60
2023/05/31 02:33:00;;;;;;;8.23;4.97;;;;;;;-148.23;100.00;56998.88;5052722;28;20048;-61
2023/05/31 02:35:29;;;;;;;9.32;4.43;;;;;;;-148.23;100.00;56998.88;5052988;28;20049;-60
2023/05/31 02:37:56;;;;;;;8.95;4.90;;;;;;;-148.23;100.00;56998.88;5053641;28;20577;-60
2023/05/31 02:40:23;;;;;;;10.15;5.00;;;;;;;-148.23;100.00;56998.88;5056518;28;20491;-60
2023/05/31 02:42:50;;;;;;;11.10;5.03;;;;;;;-148.23;100.00;56998.88;5056536;28;20140;-60
2023/05/31 02:45:17;;;;;;;15.27;4.35;;;;;;;-148.23;100.00;56998.88;5056379;28;20135;-60
2023/05/31 02:47:44;;;;;;;12.90;4.90;;;;;;;-148.23;100.00;56998.88;5056417;28;20079;-60
2023/05/31 02:50:11;;;;;;;11.45;5.57;;;;;;;-148.23;100.00;56998.88;5056379;28;20057;-60
2023/05/31 02:52:40;;;;;;;13.98;5.13;;;;;;;-148.23;100.00;56998.88;5056328;28;20107;-60
2023/05/31 02:55:08;;;;;;;11.00;5.10;;;;;;;-148.23;100.00;56998.88;5056209;28;20053;-61
2023/05/31 02:57:36;;;;;;;10.30;5.97;;;;;;;-148.23;100.00;56998.88;5056112;28;20081;-60
2023/05/31 03:00:10;;;;;;;7.53;4.90;;;;;;;-148.23;100.00;56998.88;5056379;28;20473;-60
2023/05/31 03:02:38;;;;;;;7.97;4.90;;;;;;;-148.23;100.00;56998.88;5056011;28;20049;-60
2023/05/31 03:05:05;;;;;;;14.80;5.07;;;;;;;-148.23;100.00;56998.88;5056293;28;20047;-60
2023/05/31 03:07:33;;;;;;;5.50;4.22;;;;;;;-148.23;100.00;56998.88;5056013;28;20457;-60
2023/05/31 03:10:04;;;;;;;10.80;5.05;;;;;;;-148.23;100.00;56998.88;5055868;28;20064;-60
2023/05/31 03:12:31;;;;;;;11.57;5.18;;;;;;;-148.23;100.00;56998.88;5055851;28;20060;-60
2023/05/31 03:14:58;;;;;;;12.90;5.20;;;;;;;-148.23;100.00;56998.88;5055841;28;20045;-60
2023/05/31 03:17:25;;;;;;;5.95;4.97;;;;;;;-148.23;100.00;56998.88;5055824;28;20091;-60
2023/05/31 03:19:52;;;;;;;8.35;4.88;;;;;;;-148.23;100.00;56998.88;5055871;28;20087;-60
2023/05/31 03:22:20;;;;;;;8.13;5.35;;;;;;;-148.23;100.00;56998.88;5055733;28;20136;-60
2023/05/31 03:24:47;;;;;;;7.57;5.32;;;;;;;-148.23;100.00;56998.88;5055618;28;20041;-60
2023/05/31 03:27:16;;;;;;;6.43;5.80;;;;;;;-148.23;100.00;56998.88;5055848;28;20080;-60
2023/05/31 03:29:44;;;;;;;8.57;5.25;;;;;;;-148.23;100.00;56998.88;5055605;28;20049;-60
2023/05/31 03:32:11;;;;;;;10.63;4.95;;;;;;;-148.23;100.00;56998.88;5055930;28;20049;-60
2023/05/31 03:34:38;;;;;;;12.88;5.20;;;;;;;-148.23;100.00;56998.88;5055394;28;20080;-61
2023/05/31 03:37:06;;;;;;;10.48;5.30;;;;;;;-148.23;100.00;56998.88;5055568;28;20103;-60
2023/05/31 03:39:33;;;;;;;14.52;5.03;;;;;;;-148.23;100.00;56998.88;5055378;28;20080;-60
2023/05/31 03:42:01;;;;;;;7.35;4.20;;;;;;;-148.23;100.00;56998.88;5055654;28;20049;-60
2023/05/31 03:44:30;;;;;;;5.63;3.67;;;;;;;-148.23;100.00;56998.88;5055181;28;20045;-60
2023/05/31 03:46:57;;;;;;;7.72;3.53;;;;;;;-148.23;100.00;56998.88;5055213;28;20068;-60
2023/05/31 03:49:24;;;;;;;7.78;3.65;;;;;;;-148.23;100.00;56998.88;5054973;28;20080;-60
2023/05/31 03:51:51;;;;;;;7.05;3.25;;;;;;;-148.23;100.00;56998.88;5055028;28;20127;-60
2023/05/31 03:54:18;;;;;;;3.40;3.10;;;;;;;-148.23;100.00;56998.88;5055083;28;20499;-60
2023/05/31 03:56:46;;;;;;;6.63;3.40;;;;;;;-148.23;100.00;56998.88;5055022;28;20102;-60
2023/05/31 03:59:13;;;;;;;8.52;2.95;;;;;;;-148.23;100.00;56998.88;5055128;28;20116;-60
2023/05/31 04:01:43;;;;;;;9.27;3.08;;;;;;;-148.23;100.00;56998.88;5054900;28;20052;-60
2023/05/31 04:04:10;;;;;;;5.55;2.90;;;;;;;-148.23;100.00;56998.88;5054913;28;20063;-60
2023/05/31 04:06:37;;;;;;;6.72;3.25;;;;;;;-148.23;100.00;56998.88;5054881;28;20083;-60
2023/05/31 04:09:05;;;;;;;10.65;3.30;;;;;;;-148.23;100.00;56998.88;5054800;28;20045;-60
2023/05/31 04:11:32;;;;;;;10.32;3.30;;;;;;;-148.23;100.00;56998.88;5054767;28;20110;-60
2023/05/31 04:13:59;;;;;;;7.05;2.53;;;;;;;-148.23;100.00;56998.88;5054879;28;20095;-60
2023/05/31 04:16:27;;;;;;;4.25;2.85;;;;;;;-148.23;100.00;56998.88;5054892;28;20498;-61
2023/05/31 04:18:55;;;;;;;8.27;2.88;;;;;;;-148.23;100.00;56998.88;5054625;28;20049;-60
2023/05/31 04:21:23;;;;;;;3.58;2.65;;;;;;;-148.23;100.00;56998.88;5054554;28;20045;-60
2023/05/31 04:23:50;;;;;;;4.82;2.67;;;;;;;-148.23;100.00;56998.88;5054540;28;20147;-60
2023/05/31 04:26:18;;;;;;;7.13;3.13;;;;;;;-148.23;100.00;56998.88;5054477;28;20067;-60
2023/05/31 04:28:53;;;;;;;8.05;3.33;;;;;;;-148.23;100.00;56998.88;5054368;28;20091;-61
2023/05/31 04:31:24;;;;;;;7.22;3.20;;;;;;;-148.23;100.00;56998.88;5054571;28;20049;-60
2023/05/31 04:33:53;;;;;;;7.80;2.83;;;;;;;-148.23;100.00;56998.88;5054612;28;20045;-60
2023/05/31 04:36:22;;;;;;;5.60;3.13;;;;;;;-148.23;100.00;56998.88;5054430;28;20045;-60
2023/05/31 04:38:50;;;;;;;3.45;3.10;;;;;;;-148.23;100.00;56998.88;5054378;28;20495;-60
2023/05/31 04:41:18;;;;;;;6.75;2.92;;;;;;;-148.23;100.00;56998.88;5054394;28;20457;-60
2023/05/31 04:43:45;;;;;;;5.43;2.95;;;;;;;-148.23;100.00;56998.88;5054207;28;20057;-60
2023/05/31 04:46:13;;;;;;;3.28;2.75;;;;;;;-148.23;100.00;56998.88;5054142;28;20469;-60
2023/05/31 04:48:41;;;;;;;3.63;2.78;;;;;;;-148.23;100.00;56998.88;5053997;28;20102;-60
2023/05/31 04:51:08;;;;;;;6.10;3.05;;;;;;;-148.23;100.00;56998.88;5054075;28;20068;-60
2023/05/31 04:53:37;;;;;;;7.63;3.10;;;;;;;-148.23;100.00;56998.88;5054066;28;20060;-61
2023/05/31 04:56:07;;;;;;;5.70;3.28;;;;;;;-148.23;100.00;56998.88;5053935;28;20053;-60
2023/05/31 04:58:35;;;;;;;7.10;3.00;;;;;;;-148.23;100.00;56998.88;5053897;28;20392;-60
2023/05/31 05:01:02;;;;;;;6.38;3.47;;;;;;;-148.23;100.00;56998.88;5053245;28;20449;-61
2023/05/31 05:03:29;;;;;;;3.22;2.78;;;;;;;-148.23;100.00;56998.88;5053594;28;20060;-60
2023/05/31 05:05:58;;;;;;;5.78;2.85;;;;;;;-148.23;100.00;56998.88;5054172;28;20053;-61
2023/05/31 05:08:25;;;;;;;5.28;2.70;;;;;;;-148.23;100.00;56998.88;5053834;28;20383;-60
2023/05/31 05:10:54;;;;;;;5.00;3.13;;;;;;;-148.23;100.00;56998.88;5053720;28;20053;-60
2023/05/31 05:13:21;;;;;;;5.60;2.70;;;;;;;-148.23;100.00;56998.88;5053876;28;20052;-59
2023/05/31 05:15:48;;;;;;;8.02;3.15;;;;;;;-148.23;100.00;56998.88;5053552;28;20495;-59
2023/05/31 05:18:15;;;;;;;7.80;2.85;;;;;;;-148.23;100.00;56998.88;5053513;28;20052;-60
2023/05/31 05:20:42;;;;;;;6.00;3.55;;;;;;;-148.23;100.00;56998.88;5053624;28;20140;-60
2023/05/31 05:23:09;;;;;;;6.10;3.15;;;;;;;-148.23;100.00;56998.88;5053317;28;20071;-59
2023/05/31 05:25:37;;;;;;;7.95;3.00;;;;;;;-148.23;100.00;56998.88;5053463;28;20053;-59
2023/05/31 05:28:05;;;;;;;13.15;3.08;;;;;;;-148.23;100.00;56998.88;5053343;28;20049;-59
2023/05/31 05:30:32;;;;;;;7.18;3.10;;;;;;;-148.23;100.00;56998.88;5053247;28;20131;-59
2023/05/31 05:33:00;;;;;;;5.13;3.65;;;;;;;-148.23;100.00;56998.88;5053274;28;20118;-60
2023/05/31 05:35:27;;;;;;;8.30;3.40;;;;;;;-148.23;100.00;56998.88;5053523;28;20052;-59
2023/05/31 05:37:55;;;;;;;9.52;3.33;;;;;;;-148.23;100.00;56998.88;5053301;28;20041;-59
2023/05/31 05:40:22;;;;;;;5.15;3.47;;;;;;;-148.23;100.00;56998.88;5053264;28;20045;-59
2023/05/31 05:42:49;;;;;;;9.43;3.70;;;;;;;-148.23;100.00;56998.88;5053139;28;20111;-59
2023/05/31 05:45:18;;;;;;;8.68;3.65;;;;;;;-148.23;100.00;56998.88;5053213;28;20102;-60
2023/05/31 05:47:45;;;;;;;5.15;3.17;;;;;;;-148.23;100.00;56998.88;5053123;28;20128;-59
2023/05/31 05:50:12;;;;;;;9.85;3.58;;;;;;;-148.23;100.00;56998.88;5053116;28;20049;-59
2023/05/31 05:52:40;;;;;;;6.03;3.75;;;;;;;-148.23;100.00;56998.88;5053455;28;20135;-59
2023/05/31 05:55:07;;;;;;;5.72;3.35;;;;;;;-148.23;100.00;56998.88;5052939;28;20491;-59
2023/05/31 05:57:34;;;;;;;5.45;3.38;;;;;;;-148.23;100.00;56998.88;5053095;28;20049;-59
2023/05/31 06:00:09;;;;;;;5.93;3.50;;;;;;;-148.23;100.00;56998.88;5053174;28;20487;-59
2023/05/31 06:02:38;;;;;;;6.45;3.15;;;;;;;-148.23;100.00;56998.88;5053091;28;20076;-59
2023/05/31 06:05:06;;;;;;;7.57;3.60;;;;;;;-148.23;100.00;56998.88;5052932;28;20071;-60
2023/05/31 06:07:33;;;;;;;8.32;3.92;;;;;;;-148.23;100.00;56998.88;5052931;28;20052;-59
2023/05/31 06:10:02;;;;;;;8.80;3.90;;;;;;;-148.23;100.00;56998.88;5052901;28;20052;-59
2023/05/31 06:12:29;;;;;;;8.10;4.00;;;;;;;-148.23;100.00;56998.88;5053209;28;20057;-59
2023/05/31 06:14:56;;;;;;;5.55;3.30;;;;;;;-148.23;100.00;56998.88;5056973;28;20057;-59
2023/05/31 06:17:23;;;;;;;6.45;3.35;;;;;;;-148.23;100.00;56998.88;5056987;28;20053;-60
2023/05/31 06:19:52;;;;;;;10.52;3.33;;;;;;;-148.23;100.00;56998.88;5056882;28;20135;-59
2023/05/31 06:22:19;;;;;;;5.47;3.38;;;;;;;-148.23;100.00;56998.88;5056993;28;20132;-60
2023/05/31 06:24:46;;;;;;;5.55;3.78;;;;;;;-148.23;100.00;56998.88;5056641;28;20053;-59
2023/05/31 06:27:14;;;;;;;10.95;3.42;;;;;;;-148.23;100.00;56998.88;5056975;28;20080;-59
2023/05/31 06:29:41;;;;;;;6.97;3.25;;;;;;;-148.23;100.00;56998.88;5056892;28;20045;-59
2023/05/31 06:32:08;;;;;;;5.15;3.00;;;;;;;-148.23;100.00;56998.88;5056692;28;20041;-60
2023/05/31 06:34:35;;;;;;;10.25;3.60;;;;;;;-148.23;100.00;56998.88;5056703;28;20257;-59
2023/05/31 06:37:05;;;;;;;4.85;3.70;;;;;;;-148.23;100.00;56998.88;5056606;28;20056;-59
2023/05/31 06:39:32;;;;;;;6.03;3.87;;;;;;;-148.23;100.00;56998.88;5056653;28;20053;-59
2023/05/31 06:41:59;;;;;;;6.90;3.55;;;;;;;-148.23;100.00;56998.88;5056505;28;20111;-59
2023/05/31 06:44:27;;;;;;;11.63;4.13;;;;;;;-148.23;100.00;56998.88;5056403;28;20103;-59
2023/05/31 06:46:55;;;;;;;5.85;3.65;;;;;;;-148.23;100.00;56998.88;5056463;28;20407;-59
2023/05/31 06:49:22;;;;;;;5.20;3.90;;;;;;;-148.23;100.00;56998.88;5056323;28;20502;-59
2023/05/31 06:51:49;;;;;;;9.68;4.60;;;;;;;-148.23;100.00;56998.88;5056204;28;20045;-61
2023/05/31 06:54:18;;;;;;;8.68;4.10;;;;;;;-148.23;100.00;56998.88;5056297;28;20110;-60
2023/05/31 06:56:45;;;;;;;8.40;4.00;;;;;;;-148.23;100.00;56998.88;5056358;28;20055;-59
2023/05/31 06:59:12;;;;;;;6.75;4.18;;;;;;;-148.23;100.00;56998.88;5056231;28;20060;-60
2023/05/31 07:01:39;;;;;;;10.18;4.68;;;;;;;-148.23;100.00;56998.88;5056264;28;20053;-60
2023/05/31 07:04:06;;;;;;;7.22;4.07;;;;;;;-148.23;100.00;56998.88;5056049;28;20060;-60
2023/05/31 07:06:33;;;;;;;7.78;4.15;;;;;;;-148.23;100.00;56998.88;5056050;28;20077;-60
2023/05/31 07:09:00;;;;;;;7.55;4.18;;;;;;;-148.23;100.00;56998.88;5055903;28;20540;-61
2023/05/31 07:11:29;;;;;;;11.88;4.60;;;;;;;-148.23;100.00;56998.88;5055712;28;20041;-60
2023/05/31 07:13:59;;;;;;;6.93;4.50;;;;;;;-148.23;100.00;56998.88;5055985;28;20103;-60
2023/05/31 07:16:26;;;;;;;6.30;4.13;;;;;;;-148.23;100.00;56998.88;5055883;28;20064;-60
2023/05/31 07:18:53;;;;;;;4.97;4.47;;;;;;;-148.23;100.00;56998.88;5055739;28;20481;-60
2023/05/31 07:21:20;;;;;;;10.45;3.90;;;;;;;-148.23;100.00;56998.88;5055743;28;20103;-60
2023/05/31 07:23:47;;;;;;;6.95;4.63;;;;;;;-148.23;100.00;56998.88;5055102;28;20107;-60
2023/05/31 07:26:15;;;;;;;11.13;4.72;;;;;;;-148.23;100.00;56998.88;5055596;28;20048;-61
2023/05/31 07:28:44;;;;;;;6.75;4.35;;;;;;;-148.23;100.00;56998.88;5055512;28;20408;-61
2023/05/31 07:31:15;;;;;;;5.22;4.18;;;;;;;-148.23;100.00;56998.88;5055573;28;20124;-60
2023/05/31 07:33:42;;;;;;;5.50;3.90;;;;;;;-148.23;100.00;56998.88;5055579;28;20135;-60
2023/05/31 07:36:09;;;;;;;5.28;4.35;;;;;;;-148.23;100.00;56998.88;5055648;28;20053;-60
2023/05/31 07:38:36;;;;;;;8.40;4.32;;;;;;;-148.23;100.00;56998.88;5055479;28;20049;-61
2023/05/31 07:41:04;;;;;;;6.10;4.50;;;;;;;-148.23;100.00;56998.88;5055383;28;20049;-60
2023/05/31 07:43:32;;;;;;;6.63;4.18;;;;;;;-148.23;100.00;56998.88;5055132;28;20415;-60
2023/05/31 07:46:01;;;;;;;8.13;4.82;;;;;;;-148.23;100.00;56998.88;5055398;28;20525;-60
2023/05/31 07:48:28;;;;;;;9.52;4.45;;;;;;;-148.23;100.00;56998.88;5055163;28;20048;-60
2023/05/31 07:50:55;;;;;;;7.18;4.30;;;;;;;-148.23;100.00;56998.88;5055267;28;20132;-59
2023/05/31 07:53:22;;;;;;;7.13;4.63;;;;;;;-148.23;100.00;56998.88;5055082;28;20545;-60
2023/05/31 07:55:50;;;;;;;8.18;4.25;;;;;;;-148.23;100.00;56998.88;5055060;28;20498;-60
2023/05/31 07:58:17;;;;;;;8.75;4.78;;;;;;;-148.23;100.00;56998.88;5055130;28;20486;-60
2023/05/31 08:00:44;;;;;;;7.18;3.97;;;;;;;-148.23;100.00;56998.88;5055042;28;20482;-60
2023/05/31 08:03:13;;;;;;;10.02;5.13;;;;;;;-148.23;100.00;56998.88;5055445;28;20045;-60
2023/05/31 08:05:40;;;;;;;5.90;5.03;;;;;;;-148.23;100.00;56998.88;5055199;28;20056;-60
2023/05/31 08:08:08;;;;;;;8.93;4.32;;;;;;;-148.23;100.00;56998.88;5054838;28;20048;-60
2023/05/31 08:10:35;;;;;;;5.93;4.32;;;;;;;-148.23;100.00;56998.88;5054760;28;20049;-60
2023/05/31 08:13:02;;;;;;;7.78;5.00;;;;;;;-148.23;100.00;56998.88;5054903;28;20049;-60
2023/05/31 08:15:29;;;;;;;7.45;4.63;;;;;;;-148.23;100.00;56998.88;5054986;28;20052;-61
2023/05/31 08:17:58;;;;;;;4.80;4.30;;;;;;;-148.23;100.00;56998.88;5055042;28;20049;-60
2023/05/31 08:20:27;;;;;;;10.32;4.57;;;;;;;-148.23;100.00;56998.88;5054659;28;20541;-61
2023/05/31 08:22:54;;;;;;;6.47;4.78;;;;;;;-148.23;100.00;56998.88;5054509;28;20048;-61
2023/05/31 08:25:22;;;;;;;11.13;4.65;;;;;;;-148.23;100.00;56998.88;5054476;28;20052;-60
2023/05/31 08:27:50;;;;;;;7.10;4.40;;;;;;;-148.23;100.00;56998.88;5054446;28;20509;-61
2023/05/31 08:30:17;;;;;;;7.50;4.68;;;;;;;-148.23;100.00;56998.88;5054454;28;20049;-61
2023/05/31 08:32:44;;;;;;;8.45;4.78;;;;;;;-148.23;100.00;56998.88;5054427;28;20076;-61
2023/05/31 08:35:12;;;;;;;8.60;4.60;;;;;;;-148.23;100.00;56998.88;5053582;28;20045;-60
2023/05/31 08:37:40;;;;;;;9.00;5.30;;;;;;;-148.23;100.00;56998.88;5054288;28;20537;-61
2023/05/31 08:40:09;;;;;;;12.90;5.30;;;;;;;-148.23;100.00;56998.88;5054408;28;20057;-60
2023/05/31 08:42:41;;;;;;;11.25;4.78;;;;;;;-148.23;100.00;56998.88;5054191;28;20049;-59
2023/05/31 08:45:10;;;;;;;9.07;5.18;;;;;;;-148.23;100.00;56998.88;5054116;28;20061;-60
2023/05/31 08:47:44;;;;;;;6.28;4.40;;;;;;;-148.23;100.00;56998.88;5054236;28;20288;-60
2023/05/31 08:50:12;;;;;;;6.32;4.95;;;;;;;-148.23;100.00;56998.88;5054033;28;20044;-60
2023/05/31 08:52:41;;;;;;;7.50;5.03;;;;;;;-148.23;100.00;56998.88;5054115;28;20049;-60
2023/05/31 08:55:09;;;;;;;9.52;5.05;;;;;;;-148.23;100.00;56998.88;5053958;28;20453;-61
2023/05/31 08:57:37;;;;;;;5.60;4.95;;;;;;;-148.23;100.00;56998.88;5053894;28;20088;-60
2023/05/31 09:00:10;;;;;;;6.47;4.97;;;;;;;-148.23;100.00;56998.88;5053891;28;20052;-61
2023/05/31 09:02:38;;;;;;;7.57;4.97;;;;;;;-148.23;100.00;56998.88;5053712;28;20049;-60
2023/05/31 09:05:10;;;;;;;8.93;4.78;;;;;;;-148.23;100.00;56998.88;5053647;28;20128;-60
2023/05/31 09:07:37;;;;;;;9.02;5.38;;;;;;;-148.23;100.00;56998.88;5053795;28;20094;-60
2023/05/31 09:10:08;;;;;;;7.32;4.90;;;;;;;-148.23;100.00;56998.88;5053677;28;20099;-60
2023/05/31 09:12:35;;;;;;;13.50;4.88;;;;;;;-148.23;100.00;56998.88;5053516;28;20044;-61
2023/05/31 09:15:03;;;;;;;10.32;4.20;;;;;;;-148.23;100.00;56998.88;5053679;28;20049;-60
2023/05/31 09:17:32;;;;;;;5.43;4.40;;;;;;;-148.23;100.00;56998.88;5053612;28;20055;-60
2023/05/31 09:20:01;;;;;;;9.75;5.38;;;;;;;-148.23;100.00;56998.88;5053511;28;20139;-60
2023/05/31 09:22:28;;;;;;;9.48;4.80;;;;;;;-148.23;100.00;56998.88;5053450;28;20045;-59
2023/05/31 09:24:59;;;;;;;9.43;4.72;;;;;;;-148.23;100.00;56998.88;5053371;28;20045;-60
2023/05/31 09:27:38;;;;;;;15.70;4.85;;;;;;;-148.23;100.00;56998.88;5053427;28;20076;-61
2023/05/31 09:30:08;;;;;;;8.13;4.53;;;;;;;-148.23;100.00;56998.88;5053525;28;20048;-61
2023/05/31 09:32:35;;;;;;;8.50;4.60;;;;;;;-148.23;100.00;56998.88;5053442;28;20045;-59
2023/05/31 09:35:13;;;;;;;9.40;4.63;;;;;;;-148.23;100.00;56998.88;5053274;28;20053;-60
2023/05/31 09:37:47;;;;;;;5.97;4.50;;;;;;;-148.23;100.00;56998.88;5053200;28;20060;-60
2023/05/31 09:40:15;;;;;;;8.30;5.10;;;;;;;-148.23;100.00;56998.88;5053556;28;20059;-60
2023/05/31 09:42:50;;;;;;;9.18;4.82;;;;;;;-148.23;100.00;56998.88;5053307;28;20056;-60
2023/05/31 09:45:18;;;;;;;6.55;4.50;;;;;;;-148.23;100.00;56998.88;5053003;28;20131;-60
2023/05/31 09:47:46;;;;;;;9.40;4.57;;;;;;;-148.23;100.00;56998.88;5052914;28;20453;-60
2023/05/31 09:50:16;;;;;;;7.75;4.65;;;;;;;-148.23;100.00;56998.88;5053080;28;20399;-60
2023/05/31 09:52:45;;;;;;;5.13;4.20;;;;;;;-148.23;100.00;56998.88;5053126;28;20055;-61
2023/05/31 09:55:13;;;;;;;13.55;4.38;;;;;;;-148.23;100.00;56998.88;5053326;28;20067;-59
2023/05/31 09:57:41;;;;;;;9.07;4.70;;;;;;;-148.23;100.00;56998.88;5053115;28;20057;-60
2023/05/31 10:00:16;;;;;;;7.72;4.38;;;;;;;-148.23;100.00;56998.88;5053324;28;20052;-60
2023/05/31 10:02:43;;;;;;;9.50;4.70;;;;;;;-148.23;100.00;56998.88;5052998;28;20415;-60
2023/05/31 10:05:12;;;;;;;7.72;4.63;;;;;;;-148.23;100.00;56998.88;5052828;28;20144;-60
2023/05/31 10:07:40;;;;;;;6.50;4.50;;;;;;;-148.23;100.00;56998.88;5052998;28;20111;-61
2023/05/31 10:10:09;;;;;;;5.20;4.30;;;;;;;-148.23;100.00;56998.88;5052938;28;20049;-60
2023/05/31 10:12:50;;;;;;;9.52;4.80;;;;;;;-148.23;100.00;56998.88;5052656;28;20453;-60
2023/05/31 10:15:22;;;;;;;12.38;4.72;;;;;;;-148.23;100.00;56998.88;5052816;28;20406;-60
2023/05/31 10:17:58;;;;;;;9.48;4.40;;;;;;;-148.23;100.00;56998.88;5052807;28;20554;-60
2023/05/31 10:20:28;;;;;;;6.63;4.85;;;;;;;-148.23;100.00;56998.88;5052895;28;20501;-60
2023/05/31 10:22:58;;;;;;;;;;;;;;;-148.23;100.00;56998.88;5053175;28;20150;-60
2023/05/31 10:25:30;;;;;;;7.22;4.70;;;;;;;-148.23;100.00;56998.88;5052711;28;19972;-60
2023/05/31 10:28:01;;;;;;;6.43;4.20;;;;;;;-148.23;100.00;56998.88;5052771;28;20131;-60
2023/05/31 10:30:35;;;;;;;9.25;4.25;;;;;;;-148.23;100.00;56998.88;5052656;28;20041;-59
2023/05/31 10:33:07;;;;;;;10.75;5.03;;;;;;;-148.23;100.00;56998.88;5052664;28;20124;-60
2023/05/31 10:35:35;;;;;;;5.93;4.30;;;;;;;-148.23;100.00;56998.88;5052822;28;20056;-60
2023/05/31 10:38:03;;;;;;;8.20;4.32;;;;;;;-148.23;100.00;56998.88;5052593;28;20053;-60
2023/05/31 10:40:42;;;;;;;7.35;4.95;;;;;;;-148.23;100.00;56998.88;5052720;28;20060;-60
2023/05/31 10:43:15;;;;;;;8.23;4.20;;;;;;;-148.23;100.00;56998.88;5052744;28;20151;-59
2023/05/31 10:45:47;;;;;;;6.68;4.55;;;;;;;-148.23;100.00;56998.88;5052496;28;20136;-60
2023/05/31 10:48:21;;;;;;;11.05;4.10;;;;;;;-148.23;100.00;56998.88;5052694;28;20049;-60
2023/05/31 10:50:56;;;;;;;5.50;3.92;;;;;;;-148.23;100.00;56998.88;5052589;28;20132;-60
2023/05/31 10:53:28;;;;;;;5.15;4.65;;;;;;;-148.23;100.00;56998.88;5052611;28;20049;-60
2023/05/31 10:56:02;;;;;;;11.20;4.78;;;;;;;-148.23;100.00;56998.88;5052556;28;20049;-60
2023/05/31 10:58:31;;;;;;;7.72;4.32;;;;;;;-148.23;100.00;56998.88;5053008;28;20077;-59
2023/05/31 11:01:06;;;;;;;6.95;4.53;;;;;;;-148.23;100.00;56998.88;5056160;28;20124;-59
2023/05/31 11:03:35;;;;;;;7.28;4.15;;;;;;;-148.23;100.00;56998.88;5056255;28;20053;-59
2023/05/31 11:06:04;;;;;;;8.07;4.78;;;;;;;-148.23;100.00;56998.88;5056351;28;20453;-60
2023/05/31 11:08:34;;;;;;;8.05;4.47;;;;;;;-148.23;100.00;56998.88;5056338;28;20041;-59
2023/05/31 11:11:29;;;;;;;6.60;4.47;;;;;;;-148.23;100.00;56998.88;5055929;28;20056;-60
2023/05/31 11:14:01;;;;;;;8.82;4.32;;;;;;;-148.23;100.00;56998.88;5055936;28;20049;-60